Time;durP1;ratioP1;P1;durP2;ratioP2;P2;SDS_P1;SDS_P2;PMS_P1;PMS_P2;Temp;Humidity;BMP_temperature;BMP_pressure;BME280_temperature;BME280_humidity;BME280_pressure;Samples;Min_cycle;Max_cycle;Signal;HPM_P1;HPM_P2
2023/10/15 00:01:05;;;;;;;10.77;1.13;;;6.10;99.90;;;;;;5039308;28;20228;-82
2023/10/15 00:03:33;;;;;;;3.37;0.70;;;6.00;99.90;;;;;;5048971;28;20232;-83
2023/10/15 00:06:00;;;;;;;2.03;0.70;;;6.00;99.90;;;;;;5037478;28;20302;-82
2023/10/15 00:08:27;;;;;;;2.20;0.70;;;5.90;99.90;;;;;;5042638;28;20272;-81
2023/10/15 00:10:54;;;;;;;2.17;0.53;;;5.90;99.90;;;;;;5042773;28;20221;-82
2023/10/15 00:13:22;;;;;;;4.10;0.90;;;5.80;99.90;;;;;;5041617;28;20926;-82
2023/10/15 00:15:51;;;;;;;4.03;0.90;;;5.80;99.90;;;;;;5037031;28;20232;-83
2023/10/15 00:18:18;;;;;;;2.90;0.80;;;5.70;99.90;;;;;;5037491;28;20239;-84
2023/10/15 00:20:54;;;;;;;2.87;0.63;;;5.70;99.90;;;;;;5055278;28;20213;-84
2023/10/15 00:23:24;;;;;;;2.70;0.70;;;5.70;99.90;;;;;;5034294;28;20223;-83
2023/10/15 00:25:51;;;;;;;2.87;0.80;;;5.60;99.90;;;;;;5040358;28;20258;-83
2023/10/15 00:28:18;;;;;;;5.93;1.40;;;5.70;99.90;;;;;;5038665;28;20783;-84
2023/10/15 00:30:48;;;;;;;2.47;0.80;;;5.60;99.90;;;;;;5043149;28;20229;-83
2023/10/15 00:33:16;;;;;;;11.10;1.30;;;5.70;99.90;;;;;;5042210;28;20225;-83
2023/10/15 00:35:45;;;;;;;3.23;0.90;;;5.70;99.90;;;;;;5042108;28;20294;-82
2023/10/15 00:38:16;;;;;;;5.70;1.00;;;5.70;99.90;;;;;;5040464;28;20221;-82
2023/10/15 00:40:45;;;;;;;12.63;2.10;;;5.80;99.90;;;;;;5044171;28;20235;-82
2023/10/15 00:43:17;;;;;;;5.87;1.27;;;5.80;99.90;;;;;;5040974;28;20228;-82
2023/10/15 00:45:46;;;;;;;3.73;0.87;;;5.80;99.90;;;;;;5040329;28;20208;-82
2023/10/15 00:48:22;;;;;;;10.57;1.30;;;5.90;99.90;;;;;;5035486;28;20226;-83
2023/10/15 00:50:51;;;;;;;5.20;1.13;;;5.90;99.90;;;;;;5044129;28;20220;-82
2023/10/15 00:53:23;;;;;;;7.20;1.10;;;5.90;99.90;;;;;;5043197;28;20248;-82
2023/10/15 00:55:52;;;;;;;9.63;1.20;;;5.90;99.90;;;;;;5040462;28;20903;-83
2023/10/15 00:58:31;;;;;;;22.20;1.97;;;5.90;99.90;;;;;;5041828;28;20316;-82
2023/10/15 01:03:48;;;;;;;2.17;0.90;;;6.00;99.90;;;;;;5049303;28;20228;-81
2023/10/15 01:06:18;;;;;;;48.50;4.30;;;6.00;99.90;;;;;;5042747;28;20227;-81
2023/10/15 01:08:46;;;;;;;6.17;1.20;;;6.00;99.90;;;;;;5043202;28;20679;-82
2023/10/15 01:11:18;;;;;;;13.73;1.60;;;6.00;99.90;;;;;;5046278;28;20229;-83
2023/10/15 01:13:48;;;;;;;16.00;2.63;;;6.10;99.90;;;;;;5036787;28;20253;-82
2023/10/15 01:16:18;;;;;;;12.10;1.63;;;6.00;99.90;;;;;;5048857;28;20250;-81
2023/10/15 01:18:55;;;;;;;8.93;1.33;;;6.00;99.90;;;;;;5044126;28;20248;-81
2023/10/15 01:21:26;;;;;;;8.13;1.57;;;6.10;99.90;;;;;;5045034;28;20216;-80
2023/10/15 01:24:04;;;;;;;7.93;1.20;;;6.00;99.90;;;;;;5038664;28;20249;-81
2023/10/15 01:26:36;;;;;;;13.13;1.43;;;6.10;99.90;;;;;;5041886;28;20224;-82
2023/10/15 01:29:06;;;;;;;14.23;1.50;;;6.10;99.90;;;;;;5039563;28;20322;-82
2023/10/15 01:31:39;;;;;;;15.33;1.83;;;6.00;99.90;;;;;;5035872;28;20270;-82
2023/10/15 01:34:09;;;;;;;28.97;2.60;;;6.00;99.90;;;;;;5036349;28;20629;-82
2023/10/15 01:36:39;;;;;;;4.87;1.23;;;6.00;99.90;;;;;;5039851;28;20299;-81
2023/10/15 01:39:12;;;;;;;8.67;1.47;;;6.00;99.90;;;;;;5037637;28;20304;-82
2023/10/15 01:41:41;;;;;;;5.13;1.00;;;6.00;99.90;;;;;;5038514;28;20275;-82
2023/10/15 01:44:07;;;;;;;4.27;1.40;;;5.90;99.90;;;;;;5044083;28;20881;-82
2023/10/15 01:46:45;;;;;;;4.83;1.10;;;5.90;99.90;;;;;;5050281;28;20224;-81
2023/10/15 01:49:30;;;;;;;3.57;1.07;;;5.90;99.90;;;;;;5048145;28;20222;-81
2023/10/15 01:52:05;;;;;;;4.93;1.07;;;5.80;99.90;;;;;;5048052;28;20311;-81
2023/10/15 01:54:33;;;;;;;3.37;0.77;;;5.80;99.90;;;;;;5047925;28;20254;-82
2023/10/15 01:57:06;;;;;;;14.13;1.70;;;5.80;99.90;;;;;;5039605;28;20223;-82
2023/10/15 01:59:41;;;;;;;1.87;0.80;;;5.80;99.90;;;;;;5045886;28;20224;-82
2023/10/15 02:02:14;;;;;;;3.20;0.90;;;5.70;99.90;;;;;;5038183;28;20743;-82
2023/10/15 02:04:45;;;;;;;4.70;1.10;;;5.70;99.90;;;;;;5046751;28;20223;-82
2023/10/15 02:07:16;;;;;;;5.70;1.17;;;5.70;99.90;;;;;;5045749;28;20238;-82
2023/10/15 02:09:44;;;;;;;5.97;0.83;;;5.70;99.90;;;;;;5044011;28;20254;-81
2023/10/15 02:12:13;;;;;;;6.47;1.10;;;5.70;99.90;;;;;;5039818;28;20234;-82
2023/10/15 02:14:44;;;;;;;3.23;0.90;;;5.70;99.90;;;;;;5042739;28;20223;-82
2023/10/15 02:17:13;;;;;;;17.17;1.97;;;5.70;99.90;;;;;;5036065;28;20273;-82
2023/10/15 02:19:44;;;;;;;4.50;1.10;;;5.80;99.90;;;;;;5045092;28;20240;-83
2023/10/15 02:22:13;;;;;;;4.37;1.10;;;5.80;99.90;;;;;;5036325;28;20755;-82
2023/10/15 02:24:46;;;;;;;2.77;1.10;;;5.80;99.90;;;;;;5037788;28;20757;-83
2023/10/15 02:27:22;;;;;;;4.47;1.17;;;5.80;99.90;;;;;;5033373;28;20219;-83
2023/10/15 02:29:50;;;;;;;5.23;1.10;;;5.80;99.90;;;;;;5036699;28;20266;-83
2023/10/15 02:32:28;;;;;;;6.43;1.20;;;5.90;99.90;;;;;;5037139;28;20245;-83
2023/10/15 02:34:57;;;;;;;2.80;1.07;;;5.80;99.90;;;;;;5033450;28;20281;-83
2023/10/15 02:37:26;;;;;;;7.77;1.20;;;5.80;99.90;;;;;;5033665;28;20312;-82
2023/10/15 02:39:54;;;;;;;2.90;1.00;;;5.80;99.90;;;;;;5040853;28;20224;-82
2023/10/15 02:42:30;;;;;;;5.30;1.40;;;5.80;99.90;;;;;;5032498;28;20306;-82
2023/10/15 02:44:59;;;;;;;4.37;1.13;;;5.80;99.90;;;;;;5040096;28;20766;-82
2023/10/15 02:47:31;;;;;;;4.37;1.10;;;5.80;99.90;;;;;;5032020;28;20231;-82
2023/10/15 02:50:01;;;;;;;3.47;1.10;;;5.80;99.90;;;;;;5042110;28;20230;-82
2023/10/15 02:52:35;;;;;;;2.73;1.00;;;5.70;99.90;;;;;;5025323;28;20240;-83
2023/10/15 02:55:09;;;;;;;3.93;1.20;;;5.70;99.90;;;;;;5042599;28;20236;-83
2023/10/15 02:57:39;;;;;;;4.80;0.80;;;5.70;99.90;;;;;;5036551;28;20231;-83
2023/10/15 03:00:14;;;;;;;5.00;1.03;;;5.60;99.90;;;;;;5042060;28;20699;-82
2023/10/15 03:02:45;;;;;;;2.73;1.00;;;5.60;99.90;;;;;;5060447;28;20241;-82
2023/10/15 03:05:14;;;;;;;4.97;0.87;;;5.60;99.90;;;;;;5038788;28;20227;-82
2023/10/15 03:07:43;;;;;;;6.33;0.93;;;5.50;99.90;;;;;;5047686;28;20308;-82
2023/10/15 03:10:12;;;;;;;3.93;1.23;;;5.50;99.90;;;;;;5053931;28;20221;-83
2023/10/15 03:12:44;;;;;;;8.90;1.27;;;5.50;99.90;;;;;;5042507;28;20770;-82
2023/10/15 03:15:13;;;;;;;1.77;0.77;;;5.50;99.90;;;;;;5034325;28;20327;-82
2023/10/15 03:17:41;;;;;;;5.37;0.87;;;5.50;99.90;;;;;;5034650;28;20237;-82
2023/10/15 03:20:23;;;;;;;2.23;1.03;;;5.50;99.90;;;;;;5039894;28;20252;-83
2023/10/15 03:22:52;;;;;;;7.57;1.10;;;5.50;99.90;;;;;;5059394;28;20345;-83
2023/10/15 03:25:20;;;;;;;2.63;1.00;;;5.50;99.90;;;;;;5042104;28;20727;-83
2023/10/15 03:27:53;;;;;;;5.03;0.90;;;5.50;99.90;;;;;;5037824;28;20331;-82
2023/10/15 03:30:23;;;;;;;2.87;0.80;;;5.50;99.90;;;;;;5037112;28;20288;-83
2023/10/15 03:32:52;;;;;;;3.00;0.80;;;5.40;99.90;;;;;;5043591;28;20321;-83
2023/10/15 03:35:27;;;;;;;3.13;0.90;;;5.40;99.90;;;;;;5042080;28;20223;-83
2023/10/15 03:37:59;;;;;;;2.53;0.80;;;5.40;99.90;;;;;;5037760;28;20269;-83
2023/10/15 03:40:32;;;;;;;2.23;0.70;;;5.40;99.90;;;;;;5037134;28;20247;-82
2023/10/15 03:43:06;;;;;;;3.80;0.77;;;5.40;99.90;;;;;;5042057;28;20239;-82
2023/10/15 03:45:40;;;;;;;5.40;0.73;;;5.40;99.90;;;;;;5047511;28;20668;-82
2023/10/15 03:48:14;;;;;;;5.13;0.90;;;5.40;99.90;;;;;;5049813;28;20312;-82
2023/10/15 03:50:53;;;;;;;3.90;0.80;;;5.40;99.90;;;;;;5038259;28;20648;-82
2023/10/15 03:53:21;;;;;;;5.10;1.03;;;5.40;99.90;;;;;;5057828;28;20219;-82
2023/10/15 03:55:49;;;;;;;6.40;1.00;;;5.40;99.90;;;;;;5039088;28;20261;-82
2023/10/15 03:58:22;;;;;;;3.57;1.00;;;5.40;99.90;;;;;;5030134;28;20227;-82
2023/10/15 04:00:56;;;;;;;4.07;1.17;;;5.40;99.90;;;;;;5039620;28;20230;-82
2023/10/15 04:03:28;;;;;;;3.50;1.10;;;5.40;99.90;;;;;;5038050;28;20232;-82
2023/10/15 04:06:00;;;;;;;5.57;1.53;;;5.30;99.90;;;;;;5043144;28;20938;-82
2023/10/15 04:08:27;;;;;;;7.83;1.40;;;5.30;99.90;;;;;;5029533;28;20294;-83
2023/10/15 04:10:57;;;;;;;5.20;1.60;;;5.30;99.90;;;;;;5041713;28;20234;-82
2023/10/15 04:13:27;;;;;;;5.20;1.40;;;5.30;99.90;;;;;;5027095;28;20266;-82
2023/10/15 04:15:54;;;;;;;7.37;2.13;;;5.30;99.90;;;;;;5040177;28;20220;-83
2023/10/15 04:18:22;;;;;;;3.53;1.00;;;5.30;99.90;;;;;;5036715;28;20227;-83
2023/10/15 04:20:50;;;;;;;6.63;2.10;;;5.30;99.90;;;;;;5036849;28;20236;-83
2023/10/15 04:23:30;;;;;;;3.63;1.10;;;5.40;99.90;;;;;;5033603;28;20218;-83
2023/10/15 04:26:00;;;;;;;4.80;1.10;;;5.30;99.90;;;;;;5040282;28;20226;-83
2023/10/15 04:28:28;;;;;;;4.70;1.40;;;5.30;99.90;;;;;;5037372;28;20317;-82
2023/10/15 04:30:56;;;;;;;3.73;1.07;;;5.30;99.90;;;;;;5041446;28;20234;-82
2023/10/15 04:33:25;;;;;;;2.23;0.80;;;5.30;99.90;;;;;;5034248;28;20259;-83
2023/10/15 04:35:52;;;;;;;5.97;1.00;;;5.20;99.90;;;;;;5039365;28;20271;-83
2023/10/15 04:38:21;;;;;;;2.87;0.90;;;5.20;99.90;;;;;;5043235;28;20233;-83
2023/10/15 04:40:59;;;;;;;3.03;1.00;;;5.20;99.90;;;;;;5039546;28;20233;-84
2023/10/15 04:43:29;;;;;;;1.97;0.93;;;5.20;99.90;;;;;;5038781;28;20713;-82
2023/10/15 04:45:57;;;;;;;4.43;1.07;;;5.20;99.90;;;;;;5051131;28;20228;-83
2023/10/15 04:48:27;;;;;;;2.87;0.80;;;5.20;99.90;;;;;;5030079;28;20280;-84
2023/10/15 04:50:54;;;;;;;2.53;0.90;;;5.20;99.90;;;;;;5020646;28;20322;-84
2023/10/15 04:53:30;;;;;;;3.43;1.10;;;5.20;99.90;;;;;;5025953;28;20302;-83
2023/10/15 04:56:00;;;;;;;3.13;1.00;;;5.20;99.90;;;;;;5037880;28;21528;-83
2023/10/15 04:58:31;;;;;;;2.67;1.00;;;5.20;99.90;;;;;;5033579;28;20233;-83
2023/10/15 05:01:00;;;;;;;3.13;0.87;;;5.10;99.90;;;;;;5034278;28;20576;-83
2023/10/15 05:03:27;;;;;;;5.07;1.00;;;5.10;99.90;;;;;;5034423;28;20250;-83
2023/10/15 05:05:56;;;;;;;4.23;0.93;;;5.10;99.90;;;;;;5034867;28;20226;-83
2023/10/15 05:08:24;;;;;;;2.40;1.00;;;5.10;99.90;;;;;;5032239;28;20227;-83
2023/10/15 05:10:51;;;;;;;5.90;1.23;;;5.10;99.90;;;;;;5037486;28;20226;-83
2023/10/15 05:13:19;;;;;;;4.27;1.00;;;5.10;99.90;;;;;;5030450;28;20233;-82
2023/10/15 05:15:50;;;;;;;4.10;1.23;;;5.10;99.90;;;;;;5037131;28;20230;-83
2023/10/15 05:18:18;;;;;;;5.10;1.10;;;5.10;99.90;;;;;;5040243;28;20237;-83
2023/10/15 05:20:54;;;;;;;6.37;1.00;;;5.20;99.90;;;;;;5038036;28;20230;-83
2023/10/15 05:23:22;;;;;;;4.07;1.30;;;5.20;99.90;;;;;;5035876;28;20384;-83
2023/10/15 05:25:50;;;;;;;6.07;0.93;;;5.20;99.90;;;;;;5042782;28;20229;-82
2023/10/15 05:28:17;;;;;;;5.77;1.03;;;5.20;99.90;;;;;;5037816;28;20314;-82
2023/10/15 05:30:46;;;;;;;4.73;1.10;;;5.10;99.90;;;;;;5043533;28;20795;-82
2023/10/15 05:33:16;;;;;;;4.50;1.07;;;5.20;99.90;;;;;;5032508;28;20297;-82
2023/10/15 05:35:46;;;;;;;4.10;0.80;;;5.20;99.90;;;;;;5019798;28;20219;-82
2023/10/15 05:38:14;;;;;;;5.37;0.97;;;5.20;99.90;;;;;;5041375;28;20229;-82
2023/10/15 05:40:45;;;;;;;3.00;0.77;;;5.20;99.90;;;;;;5041357;28;20230;-83
2023/10/15 05:43:12;;;;;;;3.30;0.93;;;5.20;99.90;;;;;;5035134;28;20226;-83
2023/10/15 05:45:40;;;;;;;2.93;0.83;;;5.20;99.90;;;;;;5038057;28;20238;-83
2023/10/15 05:48:08;;;;;;;7.10;1.13;;;5.20;99.90;;;;;;5048598;28;20265;-83
2023/10/15 05:50:37;;;;;;;4.90;0.90;;;5.20;99.90;;;;;;5044810;28;20250;-82
2023/10/15 05:53:06;;;;;;;4.80;1.10;;;5.20;99.90;;;;;;5039153;28;20336;-83
2023/10/15 05:55:33;;;;;;;2.80;1.27;;;5.20;99.90;;;;;;5029113;28;20246;-82
2023/10/15 05:58:00;;;;;;;4.43;0.90;;;5.20;99.90;;;;;;5036001;28;20299;-83
2023/10/15 06:00:27;;;;;;;6.23;1.23;;;5.20;99.90;;;;;;5034856;28;20235;-84
2023/10/15 06:02:55;;;;;;;3.73;1.20;;;5.30;99.90;;;;;;5021099;28;20668;-82
2023/10/15 06:05:23;;;;;;;4.77;1.10;;;5.20;99.90;;;;;;5035637;28;20225;-84
2023/10/15 06:07:54;;;;;;;5.03;1.20;;;5.30;99.90;;;;;;5034875;28;20231;-83
2023/10/15 06:10:21;;;;;;;3.00;1.07;;;5.30;99.90;;;;;;5037215;28;20229;-83
2023/10/15 06:12:48;;;;;;;2.17;0.83;;;5.30;99.90;;;;;;5038640;28;20281;-82
2023/10/15 06:15:15;;;;;;;5.73;0.90;;;5.20;99.90;;;;;;5045975;28;20282;-83
2023/10/15 06:17:42;;;;;;;2.53;1.10;;;5.30;99.90;;;;;;5037891;28;20355;-83
2023/10/15 06:20:13;;;;;;;3.30;1.03;;;5.40;99.90;;;;;;5046978;28;20601;-82
2023/10/15 06:22:40;;;;;;;3.97;1.30;;;5.40;99.90;;;;;;5036437;28;20246;-83
2023/10/15 06:25:09;;;;;;;2.03;0.80;;;5.40;99.90;;;;;;5032880;28;20224;-84
2023/10/15 06:27:36;;;;;;;1.73;0.90;;;5.40;99.90;;;;;;5036695;28;20260;-83
2023/10/15 06:30:08;;;;;;;4.80;1.20;;;5.30;99.90;;;;;;5034974;28;20229;-83
2023/10/15 06:32:36;;;;;;;4.30;1.00;;;5.40;99.90;;;;;;5056030;28;20394;-83
2023/10/15 06:35:03;;;;;;;1.90;0.90;;;5.30;99.90;;;;;;5038041;28;20281;-83
2023/10/15 06:37:31;;;;;;;5.13;1.30;;;5.30;99.90;;;;;;5042865;28;20686;-83
2023/10/15 06:39:58;;;;;;;6.07;1.37;;;5.30;99.90;;;;;;5041548;28;20236;-83
2023/10/15 06:42:27;;;;;;;5.93;1.40;;;5.40;99.90;;;;;;5040879;28;20246;-83
2023/10/15 06:44:54;;;;;;;3.83;1.10;;;5.40;99.90;;;;;;5042692;28;20231;-83
2023/10/15 06:47:20;;;;;;;3.57;1.10;;;5.40;99.90;;;;;;5041913;28;20294;-83
2023/10/15 06:49:53;;;;;;;2.73;0.93;;;5.40;99.90;;;;;;5039353;28;20230;-83
2023/10/15 06:52:23;;;;;;;7.13;1.90;;;5.50;99.90;;;;;;5037472;28;20258;-84
2023/10/15 06:54:50;;;;;;;3.30;1.20;;;5.50;99.90;;;;;;5044386;28;20236;-83
2023/10/15 06:57:17;;;;;;;2.30;1.20;;;5.60;99.90;;;;;;5041819;28;20256;-83
2023/10/15 06:59:49;;;;;;;4.40;1.10;;;5.60;99.90;;;;;;5045908;28;20235;-84
2023/10/15 07:02:16;;;;;;;3.60;1.00;;;5.70;99.90;;;;;;5039574;28;20710;-84
2023/10/15 07:04:46;;;;;;;7.97;1.00;;;5.70;99.90;;;;;;5040988;28;21122;-84
2023/10/15 07:07:14;;;;;;;2.53;1.00;;;5.70;99.90;;;;;;5041056;28;20224;-83
2023/10/15 07:09:42;;;;;;;2.57;1.07;;;5.70;99.90;;;;;;5046655;28;20228;-83
2023/10/15 07:12:09;;;;;;;2.67;1.33;;;5.70;99.90;;;;;;5039051;28;20769;-83
2023/10/15 07:14:36;;;;;;;2.90;0.73;;;5.70;99.90;;;;;;5041969;28;20227;-84
2023/10/15 07:17:04;;;;;;;4.37;1.03;;;5.70;99.90;;;;;;5045020;28;20257;-83
2023/10/15 07:19:31;;;;;;;2.60;0.67;;;5.70;99.90;;;;;;5043537;28;20229;-83
2023/10/15 07:21:57;;;;;;;3.17;0.80;;;5.80;99.90;;;;;;5042319;28;20292;-84
2023/10/15 07:24:24;;;;;;;2.57;1.10;;;5.80;99.90;;;;;;5044132;28;20238;-83
2023/10/15 07:26:52;;;;;;;5.87;1.30;;;6.00;99.90;;;;;;5042939;28;20228;-84
2023/10/15 07:29:19;;;;;;;1.80;1.10;;;6.00;99.90;;;;;;5038861;28;20241;-82
2023/10/15 07:31:46;;;;;;;4.23;1.20;;;6.10;99.90;;;;;;5043534;28;20235;-81
2023/10/15 07:34:14;;;;;;;2.17;0.80;;;6.20;99.90;;;;;;5038697;28;20723;-82
2023/10/15 07:36:43;;;;;;;5.13;1.00;;;6.20;99.90;;;;;;5038669;28;20297;-82
2023/10/15 07:39:10;;;;;;;4.17;1.10;;;6.20;99.90;;;;;;5047494;28;20235;-82
2023/10/15 07:41:37;;;;;;;3.50;1.03;;;6.30;99.90;;;;;;5045300;28;20692;-83
2023/10/15 07:44:04;;;;;;;5.47;1.13;;;6.30;99.90;;;;;;5044725;28;20217;-83
2023/10/15 07:46:33;;;;;;;10.90;1.50;;;6.20;99.90;;;;;;5044981;28;20888;-82
2023/10/15 07:49:00;;;;;;;4.03;1.10;;;6.20;99.90;;;;;;5043593;28;20221;-83
2023/10/15 07:51:30;;;;;;;8.33;1.10;;;6.20;99.90;;;;;;5030276;28;20232;-85
2023/10/15 07:54:03;;;;;;;16.67;1.93;;;6.20;99.90;;;;;;5043279;28;20233;-86
2023/10/15 07:56:31;;;;;;;6.50;1.00;;;6.20;99.90;;;;;;5040404;28;21091;-86
2023/10/15 07:58:58;;;;;;;7.50;1.33;;;6.20;99.90;;;;;;5045889;28;20275;-85
2023/10/15 08:01:25;;;;;;;10.97;1.30;;;6.20;99.90;;;;;;5039803;28;20225;-85
2023/10/15 08:03:52;;;;;;;5.57;1.33;;;6.20;99.90;;;;;;5042245;28;20259;-85
2023/10/15 08:06:20;;;;;;;6.93;1.00;;;6.20;99.90;;;;;;5037720;28;20764;-85
2023/10/15 08:08:48;;;;;;;1.93;0.80;;;6.30;99.90;;;;;;5040544;28;20225;-84
2023/10/15 08:11:15;;;;;;;4.27;1.30;;;6.30;99.90;;;;;;5039924;28;20221;-85
2023/10/15 08:13:41;;;;;;;2.77;0.90;;;6.30;99.90;;;;;;5041826;28;20241;-85
2023/10/15 08:16:08;;;;;;;4.37;0.90;;;6.30;99.90;;;;;;5033389;28;20317;-84
2023/10/15 08:18:35;;;;;;;4.90;0.93;;;6.40;99.90;;;;;;5036480;28;20227;-85
2023/10/15 08:21:02;;;;;;;5.53;1.30;;;6.30;99.90;;;;;;5039913;28;20232;-84
2023/10/15 08:23:29;;;;;;;5.20;1.10;;;6.30;99.90;;;;;;5037718;28;20242;-84
2023/10/15 08:25:57;;;;;;;3.70;1.30;;;6.30;99.90;;;;;;5033408;28;20294;-84
2023/10/15 08:28:26;;;;;;;4.00;1.27;;;6.30;99.90;;;;;;5040190;28;20229;-84
2023/10/15 08:30:54;;;;;;;4.53;1.30;;;6.40;99.90;;;;;;5048030;28;20222;-84
2023/10/15 08:33:21;;;;;;;5.77;1.13;;;6.30;99.90;;;;;;5030655;28;20232;-84
2023/10/15 08:35:48;;;;;;;3.23;1.10;;;6.40;99.90;;;;;;5028727;28;20224;-84
2023/10/15 08:38:15;;;;;;;3.13;0.90;;;6.50;99.90;;;;;;5031808;28;20631;-83
2023/10/15 08:40:45;;;;;;;4.87;0.90;;;6.60;99.90;;;;;;5030839;28;20238;-84
2023/10/15 08:43:22;;;;;;;3.70;0.90;;;6.70;99.90;;;;;;5027728;28;20225;-84
2023/10/15 08:45:52;;;;;;;2.97;0.73;;;6.90;99.90;;;;;;5021717;28;20230;-84
2023/10/15 08:48:25;;;;;;;2.03;0.60;;;7.20;99.90;;;;;;5024543;28;20226;-83
2023/10/15 08:50:55;;;;;;;3.10;0.60;;;7.40;99.90;;;;;;5022017;28;20242;-85
2023/10/15 08:53:32;;;;;;;1.07;0.60;;;7.60;99.90;;;;;;5029189;28;20400;-84
2023/10/15 08:56:01;;;;;;;4.10;0.80;;;7.80;99.90;;;;;;5028763;28;20242;-83
2023/10/15 08:58:30;;;;;;;1.43;0.80;;;8.00;99.90;;;;;;5018582;28;20231;-84
2023/10/15 09:01:00;;;;;;;1.63;0.60;;;8.20;99.90;;;;;;5041429;28;20213;-82
2023/10/15 09:03:27;;;;;;;2.07;0.60;;;8.50;99.90;;;;;;5020804;28;21036;-85
2023/10/15 09:05:55;;;;;;;0.70;0.50;;;8.70;99.90;;;;;;5010234;28;20588;-83
2023/10/15 09:08:22;;;;;;;2.33;0.87;;;8.80;99.90;;;;;;5024977;28;20221;-84
2023/10/15 09:10:52;;;;;;;1.73;0.60;;;8.80;99.90;;;;;;5024536;28;20232;-83
2023/10/15 09:13:21;;;;;;;2.87;1.00;;;8.70;99.90;;;;;;5025102;28;20234;-84
2023/10/15 09:15:52;;;;;;;2.10;0.90;;;8.70;99.90;;;;;;5030385;28;20666;-85
2023/10/15 09:18:19;;;;;;;2.73;0.97;;;8.50;99.90;;;;;;5024526;28;20293;-86
2023/10/15 09:20:52;;;;;;;3.73;0.83;;;8.40;99.90;;;;;;5020171;28;20771;-83
2023/10/15 09:23:21;;;;;;;1.83;0.80;;;8.20;99.90;;;;;;5026691;28;20293;-84
2023/10/15 09:25:51;;;;;;;1.30;0.73;;;8.10;99.90;;;;;;5027224;28;20245;-84
2023/10/15 09:28:22;;;;;;;3.53;1.00;;;8.00;99.90;;;;;;5021979;28;20231;-84
2023/10/15 09:30:51;;;;;;;2.53;1.13;;;8.00;99.90;;;;;;5033537;28;20230;-86
2023/10/15 09:33:28;;;;;;;3.10;1.23;;;8.10;99.90;;;;;;5030289;28;20332;-87
2023/10/15 09:35:55;;;;;;;3.83;1.10;;;8.20;99.90;;;;;;5030012;28;20238;-84
2023/10/15 09:38:22;;;;;;;4.30;0.90;;;8.30;99.90;;;;;;5029900;28;20793;-84
2023/10/15 09:40:49;;;;;;;2.57;1.03;;;8.30;99.90;;;;;;5027489;28;20827;-83
2023/10/15 09:43:19;;;;;;;5.30;1.20;;;8.30;99.90;;;;;;5028862;28;20241;-81
2023/10/15 09:45:54;;;;;;;3.43;1.10;;;8.20;99.90;;;;;;5034026;28;20587;-81
2023/10/15 09:48:23;;;;;;;4.43;0.93;;;8.10;99.90;;;;;;5028630;28;20230;-82
2023/10/15 09:50:53;;;;;;;1.70;0.70;;;8.00;99.90;;;;;;5032935;28;20232;-83
2023/10/15 09:53:22;;;;;;;1.90;0.80;;;7.90;99.90;;;;;;5025636;28;20287;-82
2023/10/15 09:55:49;;;;;;;3.10;1.07;;;7.80;99.90;;;;;;5028354;28;20748;-83
2023/10/15 09:58:17;;;;;;;3.63;1.10;;;7.70;99.90;;;;;;5035560;28;20796;-82
2023/10/15 10:00:49;;;;;;;1.50;0.80;;;7.70;99.90;;;;;;5019937;28;20238;-83
2023/10/15 10:03:31;;;;;;;3.33;1.00;;;7.60;99.90;;;;;;5031034;28;20234;-83
2023/10/15 10:06:09;;;;;;;3.27;1.10;;;7.50;99.90;;;;;;5049982;28;20278;-84
2023/10/15 10:08:54;;;;;;;1.93;0.77;;;7.50;99.90;;;;;;5039024;28;20241;-83
2023/10/15 10:11:35;;;;;;;4.93;1.10;;;7.40;99.90;;;;;;5051171;28;20221;-83
2023/10/15 10:14:17;;;;;;;2.60;1.10;;;7.30;99.90;;;;;;5030821;28;20229;-82
2023/10/15 10:16:45;;;;;;;1.97;0.90;;;7.40;99.90;;;;;;5051521;28;20232;-83
2023/10/15 10:19:13;;;;;;;3.13;1.33;;;7.50;99.90;;;;;;5036820;28;20236;-82
2023/10/15 10:21:42;;;;;;;3.10;0.93;;;7.70;99.90;;;;;;5038012;28;20234;-84
2023/10/15 10:24:12;;;;;;;3.43;1.00;;;7.90;99.90;;;;;;5040444;28;20289;-82
2023/10/15 10:26:40;;;;;;;5.17;1.80;;;8.10;99.90;;;;;;5037611;28;20221;-83
2023/10/15 10:29:09;;;;;;;3.20;1.10;;;8.30;99.90;;;;;;5035182;28;20284;-82
2023/10/15 10:31:36;;;;;;;4.43;1.83;;;8.60;99.90;;;;;;5034078;28;21567;-83
2023/10/15 10:34:04;;;;;;;4.80;1.13;;;8.90;99.90;;;;;;5037402;28;20655;-83
2023/10/15 10:36:41;;;;;;;3.30;1.07;;;9.10;99.90;;;;;;5038009;28;20231;-83
2023/10/15 10:39:13;;;;;;;1.60;0.67;;;9.20;99.90;;;;;;5037928;28;20280;-81
2023/10/15 10:41:41;;;;;;;2.33;1.10;;;9.40;99.90;;;;;;5027758;28;20279;-83
2023/10/15 10:44:33;;;;;;;2.97;0.90;;;9.40;99.90;;;;;;5018128;28;20698;-83
2023/10/15 10:47:17;;;;;;;4.63;1.10;;;9.40;99.90;;;;;;5041408;28;20953;-84
2023/10/15 10:49:56;;;;;;;3.60;0.90;;;9.30;99.90;;;;;;5038323;28;21051;-83
2023/10/15 10:52:30;;;;;;;2.30;0.97;;;9.40;99.90;;;;;;5036533;28;20653;-83
2023/10/15 10:55:19;;;;;;;6.07;1.40;;;9.40;99.90;;;;;;5039359;28;20281;-84
2023/10/15 10:57:46;;;;;;;2.90;1.03;;;9.60;99.90;;;;;;5031985;28;20234;-82
2023/10/15 11:00:14;;;;;;;3.43;1.10;;;9.70;99.90;;;;;;5043621;28;20220;-84
2023/10/15 11:02:42;;;;;;;3.57;1.10;;;9.90;99.90;;;;;;5040162;28;20235;-83
2023/10/15 11:05:11;;;;;;;2.57;1.07;;;10.00;99.90;;;;;;5039234;28;20698;-83
2023/10/15 11:07:40;;;;;;;2.77;1.07;;;10.10;99.90;;;;;;5037935;28;20223;-82
2023/10/15 11:10:09;;;;;;;2.20;1.10;;;10.30;99.90;;;;;;5038615;28;20887;-84
2023/10/15 11:12:36;;;;;;;2.97;0.83;;;10.40;99.90;;;;;;5045917;28;20311;-84
2023/10/15 11:15:07;;;;;;;3.07;1.10;;;10.50;99.90;;;;;;5046387;28;20245;-85
2023/10/15 11:17:34;;;;;;;6.40;1.23;;;10.60;99.90;;;;;;5061777;28;20472;-85
2023/10/15 11:20:03;;;;;;;3.70;1.07;;;10.70;99.90;;;;;;5063583;28;20227;-85
2023/10/15 11:22:30;;;;;;;3.60;1.27;;;10.80;99.90;;;;;;5040412;28;20234;-85
2023/10/15 11:24:58;;;;;;;2.03;0.80;;;11.00;99.90;;;;;;5045119;28;20620;-85
2023/10/15 11:27:25;;;;;;;4.13;1.13;;;11.10;99.90;;;;;;5047097;28;20252;-85
2023/10/15 11:29:52;;;;;;;3.20;1.23;;;11.20;99.90;;;;;;5045830;28;20223;-85
2023/10/15 11:32:19;;;;;;;4.37;1.33;;;11.30;99.90;;;;;;5044804;28;20617;-86
2023/10/15 11:34:46;;;;;;;4.50;1.17;;;11.40;99.90;;;;;;5050816;28;20230;-85
2023/10/15 11:37:16;;;;;;;2.40;1.10;;;11.40;99.90;;;;;;5046608;28;20494;-85
2023/10/15 11:39:47;;;;;;;4.97;1.40;;;11.40;99.90;;;;;;5044830;28;20531;-84
2023/10/15 11:42:19;;;;;;;4.93;1.13;;;11.50;99.90;;;;;;5049745;28;20235;-84
2023/10/15 11:44:46;;;;;;;3.40;1.20;;;11.40;99.90;;;;;;5050304;28;20937;-85
2023/10/15 11:47:15;;;;;;;3.20;1.40;;;11.50;99.90;;;;;;5046439;28;20224;-85
2023/10/15 11:49:43;;;;;;;3.37;1.10;;;11.50;99.90;;;;;;5032115;28;20233;-85
2023/10/15 11:52:14;;;;;;;4.13;1.40;;;11.40;99.90;;;;;;5047634;28;20234;-84
2023/10/15 11:54:43;;;;;;;4.83;1.50;;;11.50;99.90;;;;;;5049300;28;20240;-85
2023/10/15 11:57:16;;;;;;;2.83;1.13;;;11.40;99.90;;;;;;5045013;28;20283;-84
2023/10/15 11:59:45;;;;;;;3.47;1.00;;;11.40;99.90;;;;;;5047944;28;20261;-86
2023/10/15 12:02:12;;;;;;;3.93;1.00;;;11.40;99.90;;;;;;5042872;28;20230;-85
2023/10/15 12:04:39;;;;;;;4.00;0.90;;;11.50;99.90;;;;;;5039044;28;20248;-86
2023/10/15 12:07:15;;;;;;;2.20;0.90;;;11.40;99.90;;;;;;5042582;28;20303;-86
2023/10/15 12:09:44;;;;;;;3.23;1.00;;;11.40;99.90;;;;;;5042009;28;20228;-86
2023/10/15 12:12:11;;;;;;;3.37;1.30;;;11.40;99.90;;;;;;5039430;28;20221;-86
2023/10/15 12:14:38;;;;;;;4.40;1.20;;;11.40;99.90;;;;;;5034473;28;20310;-86
2023/10/15 12:17:06;;;;;;;2.00;1.00;;;11.40;99.90;;;;;;5032744;28;21018;-86
2023/10/15 12:19:36;;;;;;;3.40;1.00;;;11.40;99.90;;;;;;5037980;28;20230;-85
2023/10/15 12:22:04;;;;;;;4.03;1.40;;;11.40;99.90;;;;;;5037155;28;20221;-86
2023/10/15 12:24:35;;;;;;;4.17;1.10;;;11.40;99.90;;;;;;5034777;28;20924;-86
2023/10/15 12:27:01;;;;;;;5.43;1.20;;;11.40;99.90;;;;;;5040766;28;20228;-86
2023/10/15 12:29:29;;;;;;;1.63;1.00;;;11.50;99.90;;;;;;5030304;28;20273;-86
2023/10/15 12:31:57;;;;;;;3.70;1.27;;;11.50;99.90;;;;;;5033801;28;20265;-89
2023/10/15 12:34:26;;;;;;;5.83;1.33;;;11.50;99.90;;;;;;5038166;28;20273;-87
2023/10/15 12:36:53;;;;;;;2.77;1.20;;;11.50;99.90;;;;;;5037506;28;20232;-88
2023/10/15 12:39:26;;;;;;;3.10;1.30;;;11.50;99.90;;;;;;5037011;28;20636;-86
2023/10/15 12:41:59;;;;;;;4.37;1.40;;;11.50;99.90;;;;;;5034681;28;20242;-86
2023/10/15 12:44:27;;;;;;;4.37;1.27;;;11.40;99.90;;;;;;5010028;28;20259;-87
2023/10/15 12:47:00;;;;;;;3.17;1.13;;;11.50;99.90;;;;;;5031983;28;20700;-87
2023/10/15 12:49:28;;;;;;;4.00;1.20;;;11.40;99.90;;;;;;5037919;28;20235;-87
2023/10/15 12:51:56;;;;;;;5.37;1.30;;;11.40;99.90;;;;;;5039775;28;20284;-85
2023/10/15 12:54:23;;;;;;;6.80;1.43;;;11.30;99.90;;;;;;5040248;28;20217;-86
2023/10/15 12:56:50;;;;;;;2.57;1.50;;;11.30;99.90;;;;;;5040638;28;20246;-86
2023/10/15 12:59:17;;;;;;;4.87;1.10;;;11.20;99.90;;;;;;5047800;28;20597;-86
2023/10/15 13:01:44;;;;;;;3.70;1.07;;;11.20;99.90;;;;;;5038661;28;20227;-85
2023/10/15 13:04:11;;;;;;;2.87;1.00;;;11.00;99.90;;;;;;5032028;28;20300;-81
2023/10/15 13:06:50;;;;;;;6.30;1.30;;;11.00;99.90;;;;;;5033894;28;20232;-87
2023/10/15 13:09:20;;;;;;;4.40;1.07;;;10.90;99.90;;;;;;5026150;28;20281;-88
2023/10/15 13:11:48;;;;;;;2.83;1.17;;;10.90;99.90;;;;;;5035665;28;20578;-87